createdAt,value
2023-03-23T00:00:07.523Z,1701.00
2023-03-23T00:01:09.480Z,1679.00
2023-03-23T00:02:07.633Z,1696.00
2023-03-23T00:03:08.670Z,1687.00
2023-03-23T00:04:08.722Z,1652.00
2023-03-23T00:05:08.784Z,1657.00
2023-03-23T00:06:08.857Z,1645.00
2023-03-23T00:07:08.900Z,1666.00
2023-03-23T00:08:08.932Z,1647.00
2023-03-23T00:09:08.983Z,1650.00
2023-03-23T00:10:08.039Z,1640.00
2023-03-23T00:11:09.092Z,1649.00
2023-03-23T00:12:08.148Z,1665.00
2023-03-23T00:13:09.186Z,1670.00
2023-03-23T00:14:09.246Z,1638.00
2023-03-23T00:15:09.306Z,1632.00
2023-03-23T00:16:09.372Z,1645.00
2023-03-23T00:17:09.408Z,1626.00
2023-03-23T00:18:09.459Z,1634.00
2023-03-23T00:19:08.561Z,1634.00
2023-03-23T00:20:09.573Z,1623.00
2023-03-23T00:21:08.640Z,1607.00
2023-03-23T00:22:09.716Z,1602.00
2023-03-23T00:23:09.744Z,1615.00
2023-03-23T00:24:08.844Z,1613.00
2023-03-23T00:25:09.896Z,1604.00
2023-03-23T00:26:09.921Z,1607.00
2023-03-23T00:27:09.971Z,1628.00
2023-03-23T00:28:10.017Z,1606.00
2023-03-23T00:29:10.070Z,1598.00
2023-03-23T00:30:09.140Z,1595.00
2023-03-23T00:31:10.208Z,1584.00
2023-03-23T00:32:09.248Z,1598.00
2023-03-23T00:33:09.306Z,1598.00
2023-03-23T00:34:10.379Z,1581.00
2023-03-23T00:35:10.438Z,1592.00
2023-03-23T00:36:09.493Z,1588.00
2023-03-23T00:37:10.580Z,1596.00
2023-03-23T00:38:09.645Z,1585.00
2023-03-23T00:39:10.686Z,1566.00
2023-03-23T00:40:10.738Z,1574.00
2023-03-23T00:41:10.810Z,1576.00
2023-03-23T00:42:09.856Z,1574.00
2023-03-23T00:43:10.926Z,1571.00
2023-03-23T00:44:10.984Z,1582.00
2023-03-23T00:45:11.046Z,1581.00
2023-03-23T00:46:10.117Z,1576.00
2023-03-23T00:47:11.171Z,1567.00
2023-03-23T00:48:11.228Z,1566.00
2023-03-23T00:49:11.284Z,1586.00
2023-03-23T00:50:10.345Z,1587.00
2023-03-23T00:51:11.396Z,1582.00
2023-03-23T00:52:10.461Z,1579.00
2023-03-23T00:53:11.510Z,1567.00
2023-03-23T00:54:10.595Z,1574.00
2023-03-23T00:55:11.635Z,1581.00
2023-03-23T00:56:11.693Z,1593.00
2023-03-23T00:57:10.771Z,1566.00
2023-03-23T00:58:11.846Z,1558.00
2023-03-23T00:59:11.895Z,1560.00
2023-03-23T01:00:11.955Z,1569.00
2023-03-23T01:01:12.021Z,1571.00
2023-03-23T01:02:11.085Z,1568.00
2023-03-23T01:03:12.162Z,1553.00
2023-03-23T01:04:12.217Z,1557.00
2023-03-23T01:05:12.289Z,1557.00
2023-03-23T01:06:11.791Z,1542.00
2023-03-23T01:07:11.407Z,1555.00
2023-03-23T01:08:12.486Z,1550.00
2023-03-23T01:09:12.529Z,1547.00
2023-03-23T01:10:12.653Z,1548.00
2023-03-23T01:11:12.675Z,1527.00
2023-03-23T01:12:12.738Z,1550.00
2023-03-23T01:13:12.787Z,1556.00
2023-03-23T01:14:12.849Z,1544.00
2023-03-23T01:15:12.933Z,1546.00
2023-03-23T01:16:11.957Z,1539.00
2023-03-23T01:17:12.017Z,1537.00
2023-03-23T01:18:13.081Z,1552.00
2023-03-23T01:19:12.153Z,1535.00
2023-03-23T01:20:12.202Z,1547.00
2023-03-23T01:21:13.279Z,1536.00
2023-03-23T01:22:13.325Z,1536.00
2023-03-23T01:23:13.409Z,1523.00
2023-03-23T01:24:13.449Z,1522.00
2023-03-23T01:25:12.506Z,1536.00
2023-03-23T01:26:13.604Z,1521.00
2023-03-23T01:27:13.634Z,1511.00
2023-03-23T01:28:13.695Z,1523.00
2023-03-23T01:29:13.759Z,1527.00
2023-03-23T01:30:13.814Z,1520.00
2023-03-23T01:31:14.523Z,1535.00
2023-03-23T01:32:12.929Z,1510.00
2023-03-23T01:33:12.985Z,1524.00
2023-03-23T01:34:13.046Z,1525.00
2023-03-23T01:35:13.109Z,1523.00
2023-03-23T01:36:13.190Z,1528.00
2023-03-23T01:37:13.234Z,1504.00
2023-03-23T01:38:14.307Z,1519.00
2023-03-23T01:39:14.352Z,1519.00
2023-03-23T01:40:14.403Z,1512.00
2023-03-23T01:41:14.461Z,1507.00
2023-03-23T01:42:14.549Z,1504.00
2023-03-23T01:43:14.601Z,1502.00
2023-03-23T01:44:14.676Z,1514.00
2023-03-23T01:45:14.715Z,1508.00
2023-03-23T01:46:14.779Z,1505.00
2023-03-23T01:47:14.836Z,1509.00
2023-03-23T01:48:14.911Z,1518.00
2023-03-23T01:49:14.890Z,1512.00
2023-03-23T01:50:14.874Z,1511.00
2023-03-23T01:51:13.921Z,1496.00
2023-03-23T01:52:14.861Z,1492.00
2023-03-23T01:53:14.864Z,1492.00
2023-03-23T01:54:14.844Z,1488.00
2023-03-23T01:55:14.847Z,1502.00
2023-03-23T01:56:14.855Z,1497.00
2023-03-23T01:57:13.830Z,1505.00
2023-03-23T01:58:14.841Z,1496.00
2023-03-23T01:59:14.804Z,1499.00
2023-03-23T02:00:14.805Z,1486.00
2023-03-23T02:01:14.798Z,1496.00
2023-03-23T02:02:15.068Z,1498.00
2023-03-23T02:03:17.220Z,1471.00
2023-03-23T02:04:14.811Z,1492.00
2023-03-23T02:05:14.769Z,1498.00
2023-03-23T02:06:14.772Z,1492.00
2023-03-23T02:07:14.745Z,1481.00
2023-03-23T02:08:13.748Z,1478.00
2023-03-23T02:09:14.737Z,1482.00
2023-03-23T02:10:14.742Z,1490.00
2023-03-23T02:11:22.114Z,1488.00
2023-03-23T02:12:14.762Z,1489.00
2023-03-23T02:13:14.707Z,1492.00
2023-03-23T02:14:15.337Z,1492.00
2023-03-23T02:15:13.694Z,1489.00
2023-03-23T02:16:14.764Z,1490.00
2023-03-23T02:17:14.693Z,1488.00
2023-03-23T02:18:14.686Z,1490.00
2023-03-23T02:19:14.666Z,1491.00
2023-03-23T02:20:14.654Z,1487.00
2023-03-23T02:21:14.647Z,1494.00
2023-03-23T02:22:14.639Z,1489.00
2023-03-23T02:23:14.625Z,1483.00
2023-03-23T02:24:13.616Z,1489.00
2023-03-23T02:25:14.631Z,1467.00
2023-03-23T02:26:14.612Z,1465.00
2023-03-23T02:27:13.604Z,1469.00
2023-03-23T02:28:14.603Z,1484.00
2023-03-23T02:29:13.607Z,1494.00
2023-03-23T02:30:13.602Z,1470.00
2023-03-23T02:31:14.578Z,1450.00
2023-03-23T02:32:13.555Z,1457.00
2023-03-23T02:33:14.545Z,1443.00
2023-03-23T02:34:14.557Z,1466.00
2023-03-23T02:35:14.541Z,1462.00
2023-03-23T02:36:14.535Z,1462.00
2023-03-23T02:37:13.523Z,1450.00
2023-03-23T02:38:14.533Z,1462.00
2023-03-23T02:39:13.503Z,1450.00
2023-03-23T02:40:13.509Z,1457.00
2023-03-23T02:41:14.501Z,1465.00
2023-03-23T02:42:14.637Z,1451.00
2023-03-23T02:43:13.534Z,1467.00
2023-03-23T02:44:14.559Z,1444.00
2023-03-23T02:45:14.624Z,1444.00
2023-03-23T02:46:14.702Z,1423.00
2023-03-23T02:47:14.746Z,1450.00
2023-03-23T02:48:14.792Z,1447.00
2023-03-23T02:49:14.966Z,1452.00
2023-03-23T02:50:14.912Z,1450.00
2023-03-23T02:51:14.953Z,1452.00
2023-03-23T02:52:15.023Z,1443.00
2023-03-23T02:53:15.082Z,1437.00
2023-03-23T02:54:15.127Z,1453.00
2023-03-23T02:55:14.216Z,1463.00
2023-03-23T02:56:14.232Z,1457.00
2023-03-23T02:57:15.301Z,1457.00
2023-03-23T02:58:14.342Z,1437.00
2023-03-23T02:59:14.386Z,1446.00
2023-03-23T03:00:15.460Z,1447.00
2023-03-23T03:01:15.492Z,1454.00
2023-03-23T03:02:14.555Z,1443.00
2023-03-23T03:03:15.580Z,1429.00
2023-03-23T03:04:15.612Z,1436.00
2023-03-23T03:05:15.663Z,1442.00
2023-03-23T03:06:15.681Z,1446.00
2023-03-23T03:07:15.725Z,1423.00
2023-03-23T03:08:15.786Z,1433.00
2023-03-23T03:09:15.800Z,1429.00
2023-03-23T03:10:17.305Z,1425.00
2023-03-23T03:11:15.011Z,1416.00
2023-03-23T03:12:16.057Z,1408.00
2023-03-23T03:13:16.082Z,1401.00
2023-03-23T03:14:15.139Z,1416.00
2023-03-23T03:15:16.200Z,1411.00
2023-03-23T03:16:15.235Z,1419.00
2023-03-23T03:17:16.296Z,1403.00
2023-03-23T03:18:16.285Z,1403.00
2023-03-23T03:19:17.343Z,1420.00
2023-03-23T03:20:16.314Z,1415.00
2023-03-23T03:21:16.284Z,1423.00
2023-03-23T03:22:16.288Z,1422.00
2023-03-23T03:23:16.275Z,1417.00
2023-03-23T03:24:16.275Z,1411.00
2023-03-23T03:25:18.212Z,1418.00
2023-03-23T03:26:16.277Z,1419.00
2023-03-23T03:27:16.246Z,1414.00
2023-03-23T03:28:15.238Z,1409.00
2023-03-23T03:29:16.231Z,1408.00
2023-03-23T03:30:16.230Z,1409.00
2023-03-23T03:31:15.224Z,1410.00
2023-03-23T03:32:15.216Z,1390.00
2023-03-23T03:33:16.239Z,1391.00
2023-03-23T03:34:16.202Z,1391.00
2023-03-23T03:35:15.192Z,1397.00
2023-03-23T03:36:16.232Z,1380.00
2023-03-23T03:37:16.169Z,1392.00
2023-03-23T03:38:16.177Z,1387.00
2023-03-23T03:39:16.179Z,1399.00
2023-03-23T03:40:16.166Z,1382.00
2023-03-23T03:41:16.164Z,1386.00
2023-03-23T03:42:15.146Z,1393.00
2023-03-23T03:43:16.134Z,1380.00
2023-03-23T03:44:15.129Z,1369.00
2023-03-23T03:45:16.118Z,1371.00
2023-03-23T03:46:16.111Z,1375.00
2023-03-23T03:47:16.103Z,1407.00
2023-03-23T03:48:16.112Z,1404.00
2023-03-23T03:49:16.116Z,1393.00
2023-03-23T03:50:15.111Z,1391.00
2023-03-23T03:51:15.106Z,1389.00
2023-03-23T03:52:16.065Z,1367.00
2023-03-23T03:53:16.083Z,1396.00
2023-03-23T03:54:16.063Z,1397.00
2023-03-23T03:55:16.066Z,1398.00
2023-03-23T03:56:16.079Z,1396.00
2023-03-23T03:57:16.032Z,1390.00
2023-03-23T03:58:16.025Z,1398.00
2023-03-23T03:59:21.750Z,1376.00
2023-03-23T04:00:16.019Z,1378.00
2023-03-23T04:01:16.001Z,1380.00
2023-03-23T04:02:16.007Z,1383.00
2023-03-23T04:03:16.002Z,1379.00
2023-03-23T04:04:16.002Z,1367.00
2023-03-23T04:05:15.998Z,1380.00
2023-03-23T04:06:14.968Z,1391.00
2023-03-23T04:07:15.959Z,1388.00
2023-03-23T04:08:14.957Z,1376.00
2023-03-23T04:09:15.951Z,1377.00
2023-03-23T04:10:15.961Z,1398.00
2023-03-23T04:11:32.520Z,1400.00
2023-03-23T04:12:15.916Z,1401.00
2023-03-23T04:13:15.912Z,1406.00
2023-03-23T04:14:14.904Z,1407.00
2023-03-23T04:15:15.907Z,1418.00
2023-03-23T04:16:15.907Z,1417.00
2023-03-23T04:17:15.899Z,1398.00
2023-03-23T04:18:14.881Z,1400.00
2023-03-23T04:19:15.871Z,1391.00
2023-03-23T04:20:15.881Z,1420.00
2023-03-23T04:21:15.884Z,1421.00
2023-03-23T04:22:15.850Z,1421.00
2023-03-23T04:23:14.833Z,1388.00
2023-03-23T04:24:23.119Z,1424.00
2023-03-23T04:25:15.836Z,1421.00
2023-03-23T04:26:15.813Z,1421.00
2023-03-23T04:27:15.807Z,1408.00
2023-03-23T04:28:15.794Z,1405.00
2023-03-23T04:29:16.563Z,1388.00
2023-03-23T04:30:15.801Z,1390.00
2023-03-23T04:31:15.827Z,1384.00
2023-03-23T04:32:15.832Z,1386.00
2023-03-23T04:33:14.836Z,1417.00
2023-03-23T04:34:15.828Z,1419.00
2023-03-23T04:35:15.825Z,1421.00
2023-03-23T04:36:15.856Z,1422.00
2023-03-23T04:37:15.820Z,1419.00
2023-03-23T04:38:15.785Z,1407.00
2023-03-23T04:39:15.781Z,1395.00
2023-03-23T04:40:15.762Z,1393.00
2023-03-23T04:41:15.759Z,1431.00
2023-03-23T04:42:15.757Z,1501.00
2023-03-23T04:43:15.758Z,1488.00
2023-03-23T04:44:15.739Z,1488.00
2023-03-23T04:45:15.737Z,1495.00
2023-03-23T04:46:15.723Z,1488.00
2023-03-23T04:47:15.718Z,1455.00
2023-03-23T04:48:14.707Z,1483.00
2023-03-23T04:49:15.702Z,1524.00
2023-03-23T04:50:15.713Z,1525.00
2023-03-23T04:51:15.686Z,1525.00
2023-03-23T04:52:15.678Z,1479.00
2023-03-23T04:53:15.715Z,1461.00
2023-03-23T04:54:15.668Z,1484.00
2023-03-23T04:55:15.673Z,1471.00
2023-03-23T04:56:15.659Z,1473.00
2023-03-23T04:57:14.647Z,1493.00
2023-03-23T04:58:15.655Z,1454.00
2023-03-23T04:59:15.633Z,1434.00
2023-03-23T05:00:14.647Z,1433.00
2023-03-23T05:01:15.636Z,1432.00
2023-03-23T05:02:15.611Z,1411.00
2023-03-23T05:03:15.603Z,1409.00
2023-03-23T05:04:15.596Z,1404.00
2023-03-23T05:05:14.600Z,1405.00
2023-03-23T05:06:15.580Z,1404.00
2023-03-23T05:07:15.571Z,1426.00
2023-03-23T05:08:15.564Z,1452.00
2023-03-23T05:09:14.585Z,1439.00
2023-03-23T05:10:15.557Z,1435.00
2023-03-23T05:11:15.568Z,1437.00
2023-03-23T05:12:15.547Z,1444.00
2023-03-23T05:13:15.539Z,1447.00
2023-03-23T05:14:15.542Z,1465.00
2023-03-23T05:15:14.544Z,1471.00
2023-03-23T05:16:15.513Z,1472.00
2023-03-23T05:17:14.509Z,1475.00
2023-03-23T05:18:15.516Z,1493.00
2023-03-23T05:19:15.481Z,1509.00
2023-03-23T05:20:14.489Z,1522.00
2023-03-23T05:21:15.483Z,1501.00
2023-03-23T05:22:15.465Z,1531.00
2023-03-23T05:23:15.467Z,1577.00
2023-03-23T05:24:15.469Z,1521.00
2023-03-23T05:25:14.486Z,1524.00
2023-03-23T05:26:15.452Z,1567.00
2023-03-23T05:27:15.432Z,1539.00
2023-03-23T05:28:15.433Z,1514.00
2023-03-23T05:29:15.432Z,1552.00
2023-03-23T05:30:15.425Z,1519.00
2023-03-23T05:31:15.414Z,1500.00
2023-03-23T05:32:15.404Z,1489.00
2023-03-23T05:33:15.399Z,1570.00
2023-03-23T05:34:15.398Z,1567.00
2023-03-23T05:35:15.385Z,1569.00
2023-03-23T05:36:15.417Z,1557.00
2023-03-23T05:37:15.365Z,1568.00
2023-03-23T05:38:15.362Z,1516.00
2023-03-23T05:39:15.375Z,1527.00
2023-03-23T05:40:15.383Z,1526.00
2023-03-23T05:41:16.881Z,1509.00
2023-03-23T05:42:14.492Z,1549.00
2023-03-23T05:43:15.545Z,1540.00
2023-03-23T05:44:15.617Z,1558.00
2023-03-23T05:45:14.689Z,1586.00
2023-03-23T05:46:15.741Z,1555.00
2023-03-23T05:47:15.789Z,1606.00
2023-03-23T05:48:15.853Z,1601.00
2023-03-23T05:49:15.905Z,1561.00
2023-03-23T05:50:15.957Z,1561.00
2023-03-23T05:51:16.034Z,1575.00
2023-03-23T05:52:16.103Z,1561.00
2023-03-23T05:53:15.169Z,1545.00
2023-03-23T05:54:16.223Z,1546.00
2023-03-23T05:55:16.294Z,1550.00
2023-03-23T05:56:15.340Z,1551.00
2023-03-23T05:57:16.447Z,1566.00
2023-03-23T05:58:16.459Z,1526.00
2023-03-23T05:59:16.509Z,1554.00
2023-03-23T06:00:16.579Z,1570.00
2023-03-23T06:01:15.620Z,1572.00
2023-03-23T06:02:16.686Z,1607.00
2023-03-23T06:03:16.731Z,1601.00
2023-03-23T06:04:16.799Z,1604.00
2023-03-23T06:05:16.859Z,1608.00
2023-03-23T06:06:16.935Z,1591.00
2023-03-23T06:09:16.118Z,1599.00
2023-03-23T06:10:17.168Z,1610.00
2023-03-23T06:11:16.246Z,1636.00
2023-03-23T06:12:17.326Z,1618.00
2023-03-23T06:13:17.397Z,1621.00
2023-03-23T06:14:17.447Z,1592.00
2023-03-23T06:15:17.490Z,1572.00
2023-03-23T06:16:17.588Z,1549.00
2023-03-23T06:17:17.608Z,1583.00
2023-03-23T06:18:16.678Z,1610.00
2023-03-23T06:19:16.772Z,1557.00
2023-03-23T06:20:17.811Z,1519.00
2023-03-23T06:21:18.564Z,1594.00
2023-03-23T06:22:17.934Z,1617.00
2023-03-23T06:24:17.058Z,1627.00
2023-03-23T06:25:18.089Z,1583.00
2023-03-23T06:26:18.140Z,1544.00
2023-03-23T06:27:18.168Z,1532.00
2023-03-23T06:28:17.207Z,1525.00
2023-03-23T06:29:18.282Z,1495.00
2023-03-23T06:30:18.322Z,1483.00
2023-03-23T06:31:18.363Z,1479.00
2023-03-23T06:32:18.409Z,1447.00
2023-03-23T06:33:19.845Z,1434.00
2023-03-23T06:34:17.502Z,1468.00
2023-03-23T06:35:18.501Z,1470.00
2023-03-23T06:36:18.580Z,1466.00
2023-03-23T06:37:18.577Z,1441.00
2023-03-23T06:38:18.579Z,1442.00
2023-03-23T06:40:17.540Z,1451.00
2023-03-23T06:41:19.136Z,1460.00
2023-03-23T06:43:17.514Z,1501.00
2023-03-23T06:44:18.507Z,1509.00
2023-03-23T06:45:18.518Z,1530.00
2023-03-23T06:46:18.537Z,1513.00
2023-03-23T06:47:17.493Z,1502.00
2023-03-23T06:48:17.494Z,1448.00
2023-03-23T06:49:17.478Z,1221.00
2023-03-23T06:50:18.475Z,1141.00
2023-03-23T06:54:17.443Z,1024.00
2023-03-23T06:55:18.491Z,1021.00
2023-03-23T06:57:17.467Z,991.00
2023-03-23T06:58:18.406Z,963.00
2023-03-23T06:59:18.417Z,944.00
2023-03-23T07:00:18.454Z,974.00
2023-03-23T07:01:18.496Z,989.00
2023-03-23T07:04:17.395Z,1050.00
2023-03-23T07:05:17.365Z,1098.00
2023-03-23T07:06:18.361Z,1120.00
2023-03-23T07:07:18.368Z,1159.00
2023-03-23T07:09:17.367Z,1241.00
2023-03-23T07:11:17.344Z,1332.00
2023-03-23T07:12:18.394Z,1369.00
2023-03-23T07:13:18.436Z,1369.00
2023-03-23T07:14:18.486Z,1408.00
2023-03-23T07:15:17.495Z,1404.00
2023-03-23T07:16:19.086Z,1509.00
2023-03-23T07:17:18.664Z,1556.00
2023-03-23T07:18:18.530Z,1522.00
2023-03-23T07:19:18.534Z,1536.00
2023-03-23T07:22:17.556Z,1581.00
2023-03-23T07:23:18.575Z,1661.00
2023-03-23T07:24:18.591Z,1783.00
2023-03-23T07:26:17.694Z,1832.00
2023-03-23T07:27:18.737Z,1811.00
2023-03-23T07:28:18.816Z,1851.00
2023-03-23T07:29:18.851Z,1797.00
2023-03-23T07:33:18.131Z,1774.00
2023-03-23T07:34:19.140Z,1801.00
2023-03-23T07:35:19.178Z,1798.00
2023-03-23T07:38:18.358Z,1841.00
2023-03-23T07:39:19.385Z,1835.00
2023-03-23T07:40:19.445Z,1804.00
2023-03-23T07:42:18.566Z,1755.00
2023-03-23T07:43:19.607Z,1766.00
2023-03-23T07:46:18.727Z,1768.00
2023-03-23T07:47:19.764Z,1770.00
2023-03-23T07:49:18.765Z,1773.00
2023-03-23T07:50:19.737Z,1771.00
2023-03-23T07:51:19.730Z,1702.00
2023-03-23T07:52:18.694Z,1696.00
2023-03-23T07:53:20.154Z,1682.00
2023-03-23T07:56:18.690Z,1834.00
2023-03-23T07:57:19.665Z,1781.00
2023-03-23T07:58:20.147Z,1762.00
2023-03-23T07:59:18.671Z,1780.00
2023-03-23T08:00:19.652Z,1769.00
2023-03-23T08:01:19.645Z,1765.00
2023-03-23T08:02:19.633Z,1745.00
2023-03-23T08:03:19.655Z,1751.00
2023-03-23T08:04:18.619Z,1723.00
2023-03-23T08:05:19.637Z,1741.00
2023-03-23T08:09:18.573Z,1777.00
2023-03-23T08:10:19.597Z,1832.00
2023-03-23T08:11:19.611Z,1872.00
2023-03-23T08:12:19.551Z,1829.00
2023-03-23T08:14:21.825Z,1828.00
2023-03-23T08:15:19.542Z,1831.00
2023-03-23T08:17:18.524Z,1859.00
2023-03-23T08:18:19.541Z,1854.00
2023-03-23T08:19:18.507Z,1902.00
2023-03-23T08:20:18.535Z,1935.00
2023-03-23T08:21:19.530Z,1980.00
2023-03-23T08:28:18.461Z,2023.00
2023-03-23T08:29:19.449Z,2060.00
2023-03-23T08:30:19.459Z,2099.00
2023-03-23T08:32:18.417Z,2116.00
2023-03-23T08:33:19.441Z,2115.00
2023-03-23T08:37:18.399Z,2110.00
2023-03-23T08:39:18.364Z,2152.00
2023-03-23T08:40:19.413Z,2174.00
2023-03-23T08:46:18.313Z,2230.00
2023-03-23T08:47:19.416Z,2239.00
2023-03-23T08:48:19.651Z,2215.00
2023-03-23T08:50:18.274Z,2188.00
2023-03-23T08:51:19.281Z,2200.00
2023-03-23T08:52:19.268Z,2175.00
2023-03-23T08:58:18.247Z,2138.00
2023-03-23T09:00:18.259Z,2120.00
2023-03-23T09:02:18.208Z,2107.00
2023-03-23T09:03:19.230Z,2106.00
2023-03-23T09:04:19.245Z,2090.00
2023-03-23T09:06:18.348Z,2099.00
2023-03-23T09:07:19.364Z,2093.00
2023-03-23T09:08:19.413Z,2078.00
2023-03-23T09:09:19.470Z,2082.00
2023-03-23T09:10:19.480Z,2078.00
2023-03-23T09:11:19.504Z,2083.00
2023-03-23T09:16:18.618Z,2054.00
2023-03-23T09:17:19.645Z,2047.00
2023-03-23T09:18:19.690Z,2041.00
2023-03-23T09:19:19.755Z,2042.00
2023-03-23T09:20:19.767Z,2031.00
2023-03-23T09:21:19.821Z,2033.00
2023-03-23T09:22:19.871Z,2025.00
2023-03-23T09:23:19.892Z,2026.00
2023-03-23T09:24:19.929Z,2019.00
2023-03-23T09:25:20.029Z,2008.00
2023-03-23T09:29:19.135Z,1985.00
2023-03-23T09:30:20.184Z,1989.00
2023-03-23T09:31:20.904Z,1982.00
2023-03-23T09:33:19.349Z,1978.00
2023-03-23T09:34:20.386Z,1970.00
2023-03-23T09:35:20.469Z,1961.00
2023-03-23T09:36:20.528Z,1966.00
2023-03-23T09:37:20.572Z,1952.00
2023-03-23T09:38:20.617Z,1950.00
2023-03-23T09:39:20.649Z,1930.00
2023-03-23T09:40:20.727Z,1913.00
2023-03-23T09:44:19.896Z,1866.00
2023-03-23T09:45:20.960Z,1834.00
2023-03-23T09:46:21.012Z,1827.00
2023-03-23T09:47:21.096Z,1852.00
2023-03-23T09:48:21.130Z,1790.00
2023-03-23T09:49:21.226Z,1809.00
2023-03-23T09:50:21.245Z,1767.00
2023-03-23T09:51:21.305Z,1766.00
2023-03-23T09:52:21.343Z,1621.00
2023-03-23T09:55:20.420Z,1608.00
2023-03-23T09:56:21.463Z,1514.00
2023-03-23T09:57:21.479Z,1548.00
2023-03-23T10:02:20.644Z,1468.00
2023-03-23T10:03:20.622Z,1477.00
2023-03-23T10:04:20.579Z,1490.00
2023-03-23T10:06:20.588Z,1490.00
2023-03-23T10:07:21.614Z,1450.00
2023-03-23T10:08:21.691Z,1390.00
2023-03-23T10:09:21.622Z,1383.00
2023-03-23T10:10:21.645Z,1310.00
2023-03-23T10:11:21.687Z,1278.00
2023-03-23T10:13:20.772Z,1236.00
2023-03-23T10:14:21.736Z,1261.00
2023-03-23T10:15:21.764Z,1238.00
2023-03-23T10:22:21.042Z,1100.00
2023-03-23T10:23:22.065Z,1108.00
2023-03-23T10:24:22.337Z,1077.00
2023-03-23T10:26:21.228Z,1079.00
2023-03-23T10:27:23.302Z,1075.00
2023-03-23T10:31:21.446Z,1061.00
2023-03-23T10:32:22.508Z,1042.00
2023-03-23T10:33:22.556Z,1033.00
2023-03-23T10:34:22.745Z,981.00
2023-03-23T10:38:21.832Z,1061.00
2023-03-23T10:39:22.880Z,1006.00
2023-03-23T10:40:22.930Z,1001.00
2023-03-23T10:41:23.540Z,1003.00
2023-03-23T10:42:23.023Z,986.00
2023-03-23T10:43:23.102Z,1007.00
2023-03-23T10:44:23.136Z,1060.00
2023-03-23T10:45:23.177Z,1019.00
2023-03-23T10:48:22.206Z,963.00
2023-03-23T10:49:23.338Z,948.00
2023-03-23T10:54:22.297Z,912.00
2023-03-23T10:55:23.344Z,977.00
2023-03-23T10:57:22.339Z,1148.00
2023-03-23T10:58:23.359Z,1201.00
2023-03-23T10:59:23.386Z,1093.00
2023-03-23T11:00:23.676Z,1136.00
2023-03-23T11:04:22.354Z,1232.00
2023-03-23T11:05:24.869Z,1143.00
2023-03-23T11:06:23.441Z,1185.00
2023-03-23T11:11:22.482Z,976.00
2023-03-23T11:12:23.462Z,963.00
2023-03-23T11:13:23.442Z,960.00
2023-03-23T11:14:23.442Z,898.00
2023-03-23T11:17:22.429Z,860.00
2023-03-23T11:18:23.428Z,925.00
2023-03-23T11:21:22.466Z,867.00
2023-03-23T11:22:23.516Z,834.00
2023-03-23T11:24:22.550Z,836.00
2023-03-23T11:25:23.530Z,882.00
2023-03-23T11:26:23.531Z,883.00
2023-03-23T11:27:23.519Z,903.00
2023-03-23T11:28:23.591Z,883.00
2023-03-23T11:29:22.654Z,832.00
2023-03-23T11:30:23.661Z,859.00
2023-03-23T11:31:23.672Z,854.00
2023-03-23T11:32:23.712Z,764.00
2023-03-23T11:33:25.715Z,709.00
2023-03-23T11:35:22.731Z,753.00
2023-03-23T11:36:23.690Z,807.00
2023-03-23T11:40:22.647Z,789.00
2023-03-23T11:41:22.667Z,828.00
2023-03-23T11:42:23.648Z,801.00
2023-03-23T11:45:22.610Z,652.00
2023-03-23T11:46:23.612Z,770.00
2023-03-23T11:47:23.636Z,746.00
2023-03-23T11:50:22.596Z,919.00
2023-03-23T11:54:22.562Z,905.00
2023-03-23T11:55:23.587Z,938.00
2023-03-23T11:56:23.549Z,933.00
2023-03-23T11:57:23.549Z,947.00
2023-03-23T11:58:23.546Z,957.00
2023-03-23T12:01:22.531Z,994.00
2023-03-23T12:02:23.517Z,1010.00
2023-03-23T12:04:22.550Z,1055.00
2023-03-23T12:07:23.470Z,1036.00
2023-03-23T12:08:23.470Z,1067.00
2023-03-23T12:09:23.460Z,1056.00
2023-03-23T12:14:25.071Z,1118.00
2023-03-23T12:15:22.646Z,1163.00
2023-03-23T12:16:23.691Z,1161.00
2023-03-23T12:17:23.661Z,1154.00
2023-03-23T12:18:23.729Z,1188.00
2023-03-23T12:21:22.842Z,1177.00
2023-03-23T12:22:23.854Z,1209.00
2023-03-23T12:23:23.861Z,1215.00
2023-03-23T12:24:23.915Z,1220.00
2023-03-23T12:25:22.944Z,1203.00
2023-03-23T12:26:23.949Z,1195.00
2023-03-23T12:27:23.966Z,1202.00
2023-03-23T12:28:24.008Z,1206.00
2023-03-23T12:29:24.053Z,1219.00
2023-03-23T12:30:24.075Z,1213.00
2023-03-23T12:32:23.108Z,1216.00
2023-03-23T12:33:23.120Z,1205.00
2023-03-23T12:34:24.143Z,1217.00
2023-03-23T12:35:24.454Z,1210.00
2023-03-23T12:36:24.241Z,1206.00
2023-03-23T12:37:24.264Z,1200.00
2023-03-23T12:41:23.177Z,1209.00
2023-03-23T12:42:24.210Z,1214.00
2023-03-23T12:44:23.240Z,1210.00
2023-03-23T12:45:24.321Z,1203.00
2023-03-23T12:47:23.270Z,1212.00
2023-03-23T12:48:24.246Z,1212.00
2023-03-23T12:49:23.265Z,1215.00
2023-03-23T12:50:24.265Z,1214.00
2023-03-23T12:52:23.306Z,1215.00
2023-03-23T12:53:24.299Z,1217.00
2023-03-23T13:00:23.326Z,1228.00
2023-03-23T13:01:24.332Z,1213.00
2023-03-23T13:02:24.386Z,1221.00
2023-03-23T13:03:24.375Z,1234.00
2023-03-23T13:04:24.427Z,1227.00
2023-03-23T13:05:24.420Z,1238.00
2023-03-23T13:06:24.471Z,1244.00
2023-03-23T13:08:23.465Z,1247.00
2023-03-23T13:09:24.406Z,1245.00
2023-03-23T13:10:24.466Z,1246.00
2023-03-23T13:11:24.401Z,1243.00
2023-03-23T13:12:24.413Z,1239.00
2023-03-23T13:16:23.390Z,1221.00
2023-03-23T13:17:24.366Z,1226.00
2023-03-23T13:18:24.356Z,1225.00
2023-03-23T13:19:24.349Z,1225.00
2023-03-23T13:20:24.355Z,1227.00
2023-03-23T13:24:23.341Z,1224.00
2023-03-23T13:25:24.314Z,1236.00
2023-03-23T13:27:23.298Z,1232.00
2023-03-23T13:28:24.309Z,1254.00
2023-03-23T13:29:24.304Z,1258.00
2023-03-23T13:31:23.269Z,1331.00
2023-03-23T13:32:24.274Z,1321.00
2023-03-23T13:33:24.248Z,1309.00
2023-03-23T13:34:24.267Z,1331.00
2023-03-23T13:36:23.281Z,1310.00
2023-03-23T13:37:24.245Z,1320.00
2023-03-23T13:38:24.226Z,1322.00
2023-03-23T13:39:23.232Z,1330.00
2023-03-23T13:40:24.251Z,1330.00
2023-03-23T13:41:24.209Z,1334.00
2023-03-23T13:44:23.189Z,1335.00
2023-03-23T13:45:24.186Z,1331.00
2023-03-23T13:49:23.139Z,1348.00
2023-03-23T13:50:24.177Z,1344.00
2023-03-23T13:52:23.121Z,1331.00
2023-03-23T13:53:23.227Z,1338.00
2023-03-23T13:54:24.158Z,1339.00
2023-03-23T13:58:23.090Z,1345.00
2023-03-23T14:00:23.083Z,1345.00
2023-03-23T14:01:24.052Z,1344.00
2023-03-23T14:05:23.051Z,1339.00
2023-03-23T14:06:24.034Z,1355.00
2023-03-23T14:07:24.013Z,1345.00
2023-03-23T14:08:24.002Z,1347.00
2023-03-23T14:11:22.995Z,1343.00
2023-03-23T14:12:24.004Z,1343.00
2023-03-23T14:14:22.968Z,1347.00
2023-03-23T14:15:23.977Z,1355.00
2023-03-23T14:16:23.995Z,1346.00
2023-03-23T14:17:24.006Z,1345.00
2023-03-23T14:18:24.040Z,1322.00
2023-03-23T14:21:23.107Z,1337.00
2023-03-23T14:22:24.155Z,1335.00
2023-03-23T14:23:24.152Z,1333.00
2023-03-23T14:24:24.171Z,1335.00
2023-03-23T14:30:23.407Z,1333.00
2023-03-23T14:31:24.420Z,1329.00
2023-03-23T14:32:24.479Z,1337.00
2023-03-23T14:33:23.498Z,1326.00
2023-03-23T14:34:24.527Z,1332.00
2023-03-23T14:35:24.580Z,1330.00
2023-03-23T14:36:24.589Z,1318.00
2023-03-23T14:37:24.627Z,1324.00
2023-03-23T14:38:24.673Z,1328.00
2023-03-23T14:39:24.700Z,1316.00
2023-03-23T14:40:24.763Z,1328.00
2023-03-23T14:41:24.772Z,1339.00
2023-03-23T14:42:24.809Z,1330.00
2023-03-23T14:43:24.835Z,1317.00
2023-03-23T14:44:24.912Z,1316.00
2023-03-23T14:47:23.942Z,1315.00
2023-03-23T14:48:24.965Z,1321.00
2023-03-23T14:49:25.030Z,1318.00
2023-03-23T14:50:25.077Z,1325.00
2023-03-23T14:52:24.133Z,1321.00
2023-03-23T14:56:24.264Z,1313.00
2023-03-23T14:57:25.296Z,1317.00
2023-03-23T14:58:25.322Z,1316.00
2023-03-23T14:59:25.346Z,1305.00
2023-03-23T15:00:25.454Z,1314.00
2023-03-23T15:02:24.440Z,1320.00
2023-03-23T15:06:24.585Z,1313.00
2023-03-23T15:07:25.688Z,1304.00
2023-03-23T15:09:24.682Z,1301.00
2023-03-23T15:13:24.848Z,1306.00
2023-03-23T15:14:25.908Z,1296.00
2023-03-23T15:15:25.969Z,1300.00
2023-03-23T15:16:25.989Z,1291.00
2023-03-23T15:17:26.008Z,1297.00